createdAt,value
2023-03-05T00:01:35.675Z,66.40
2023-03-05T00:04:38.455Z,66.29
2023-03-05T00:07:40.764Z,65.92
2023-03-05T00:10:43.520Z,66.00
2023-03-05T00:13:46.344Z,65.71
2023-03-05T00:16:49.081Z,65.82
2023-03-05T00:19:51.552Z,65.53
2023-03-05T00:22:54.214Z,65.54
2023-03-05T00:25:56.671Z,65.55
2023-03-05T00:28:59.450Z,65.42
2023-03-05T00:32:01.916Z,65.44
2023-03-05T00:35:05.061Z,65.31
2023-03-05T00:38:07.447Z,65.21
2023-03-05T00:41:10.169Z,65.12
2023-03-05T00:44:13.066Z,65.38
2023-03-05T00:47:18.446Z,65.31
2023-03-05T00:50:20.849Z,65.43
2023-03-05T00:53:23.851Z,65.61
2023-03-05T00:56:28.344Z,65.84
2023-03-05T00:59:31.348Z,65.59
2023-03-05T01:02:34.794Z,65.59
2023-03-05T01:05:38.122Z,65.94
2023-03-05T01:08:40.742Z,65.67
2023-03-05T01:11:43.418Z,65.56
2023-03-05T01:14:45.891Z,65.51
2023-03-05T01:17:48.628Z,65.18
2023-03-05T01:20:51.137Z,65.20
2023-03-05T01:23:53.903Z,65.43
2023-03-05T01:26:56.196Z,65.50
2023-03-05T01:29:59.177Z,65.28
2023-03-05T01:33:02.269Z,65.56
2023-03-05T01:36:13.371Z,65.45
2023-03-05T01:39:16.514Z,65.47
2023-03-05T01:42:21.081Z,65.68
2023-03-05T01:45:23.447Z,66.12
2023-03-05T01:48:26.691Z,66.16
2023-03-05T01:51:35.416Z,66.09
2023-03-05T01:54:48.959Z,65.97
2023-03-05T01:57:57.767Z,66.18
2023-03-05T02:01:01.862Z,66.02
2023-03-05T02:04:07.239Z,66.16
2023-03-05T02:07:10.783Z,66.11
2023-03-05T02:10:22.658Z,66.04
2023-03-05T02:13:29.527Z,65.80
2023-03-05T02:16:36.810Z,66.33
2023-03-05T02:20:02.328Z,66.16
2023-03-05T02:23:05.125Z,66.32
2023-03-05T02:26:10.039Z,66.15
2023-03-05T02:29:19.275Z,66.24
2023-03-05T02:32:21.809Z,66.18
2023-03-05T02:35:25.324Z,66.03
2023-03-05T02:38:28.030Z,66.24
2023-03-05T02:41:30.784Z,65.88
2023-03-05T02:44:33.541Z,65.91
2023-03-05T02:47:36.161Z,66.03
2023-03-05T02:50:39.855Z,65.87
2023-03-05T02:53:42.726Z,66.25
2023-03-05T02:56:45.574Z,65.96
2023-03-05T02:59:48.515Z,66.29
2023-03-05T03:02:51.456Z,67.37
2023-03-05T03:05:54.166Z,66.60
2023-03-05T03:08:57.436Z,66.49
2023-03-05T03:12:00.018Z,66.85
2023-03-05T03:15:02.502Z,66.86
2023-03-05T03:18:05.253Z,66.98
2023-03-05T03:21:07.840Z,66.91
2023-03-05T03:24:10.522Z,67.13
2023-03-05T03:27:12.909Z,66.74
2023-03-05T03:30:16.224Z,66.81
2023-03-05T03:33:18.811Z,66.74
2023-03-05T03:36:21.443Z,66.90
2023-03-05T03:39:25.548Z,66.98
2023-03-05T03:42:28.201Z,67.06
2023-03-05T03:45:30.664Z,67.03
2023-03-05T03:48:33.916Z,67.20
2023-03-05T03:51:36.289Z,67.44
2023-03-05T03:54:38.984Z,67.32
2023-03-05T03:57:41.262Z,67.90
2023-03-05T04:00:44.087Z,67.40
2023-03-05T04:03:47.153Z,67.22
2023-03-05T04:06:49.554Z,67.31
2023-03-05T04:09:52.387Z,66.99
2023-03-05T04:12:54.705Z,67.03
2023-03-05T04:15:58.827Z,67.05
2023-03-05T04:19:01.264Z,67.06
2023-03-05T04:22:04.049Z,67.33
2023-03-05T04:25:08.389Z,67.21
2023-03-05T04:28:11.962Z,67.30
2023-03-05T04:31:14.372Z,67.32
2023-03-05T04:34:17.131Z,67.23
2023-03-05T04:37:19.537Z,67.05
2023-03-05T04:40:22.260Z,67.20
2023-03-05T04:43:24.637Z,67.18
2023-03-05T04:46:27.372Z,67.52
2023-03-05T04:49:29.934Z,67.34
2023-03-05T04:52:32.861Z,67.36
2023-03-05T04:55:35.153Z,67.26
2023-03-05T04:58:37.759Z,67.27
2023-03-05T05:01:40.191Z,67.24
2023-03-05T05:04:45.186Z,67.01
2023-03-05T05:07:47.657Z,67.00
2023-03-05T05:11:01.624Z,66.99
2023-03-05T05:14:04.331Z,66.89
2023-03-05T05:17:07.361Z,66.84
2023-03-05T05:20:12.492Z,66.42
2023-03-05T05:23:15.600Z,66.27
2023-03-05T05:26:17.954Z,66.32
2023-03-05T05:29:20.625Z,66.25
2023-03-05T05:32:24.459Z,66.42
2023-03-05T05:35:27.163Z,66.15
2023-03-05T05:38:29.554Z,66.39
2023-03-05T05:41:32.336Z,66.36
2023-03-05T05:44:34.982Z,66.08
2023-03-05T05:47:37.853Z,66.13
2023-03-05T05:50:41.170Z,65.96
2023-03-05T05:53:44.316Z,66.21
2023-03-05T05:56:46.652Z,65.81
2023-03-05T05:59:49.361Z,65.52
2023-03-05T06:02:51.865Z,65.33
2023-03-05T06:05:54.675Z,65.48
2023-03-05T06:08:57.448Z,65.17
2023-03-05T06:12:00.182Z,64.94
2023-03-05T06:15:02.534Z,65.00
2023-03-05T06:18:05.317Z,64.83
2023-03-05T06:21:11.994Z,64.47
2023-03-05T06:24:14.653Z,64.25
2023-03-05T06:27:16.998Z,64.43
2023-03-05T06:30:20.692Z,64.30
2023-03-05T06:33:23.088Z,64.39
2023-03-05T06:36:26.090Z,64.02
2023-03-05T06:39:28.428Z,64.07
2023-03-05T06:42:31.154Z,64.08
2023-03-05T06:45:33.514Z,63.78
2023-03-05T06:48:36.405Z,63.65
2023-03-05T06:51:40.558Z,63.63
2023-03-05T06:54:43.245Z,63.67
2023-03-05T06:57:45.765Z,63.75
2023-03-05T07:00:48.458Z,63.59
2023-03-05T07:03:55.440Z,63.53
2023-03-05T07:06:59.202Z,63.64
2023-03-05T07:10:01.841Z,63.36
2023-03-05T07:13:04.520Z,63.49
2023-03-05T07:16:09.107Z,63.28
2023-03-05T07:19:11.840Z,63.44
2023-03-05T07:22:14.210Z,63.32
2023-03-05T07:25:21.609Z,63.38
2023-03-05T07:28:23.967Z,63.32
2023-03-05T07:31:30.919Z,63.51
2023-03-05T07:34:33.314Z,63.18
2023-03-05T07:37:36.013Z,63.61
2023-03-05T07:40:38.400Z,63.45
2023-03-05T07:43:41.192Z,63.54
2023-03-05T07:46:44.595Z,63.18
2023-03-05T07:49:47.269Z,62.99
2023-03-05T07:52:49.563Z,63.03
2023-03-05T07:55:52.428Z,62.99
2023-03-05T07:58:54.772Z,62.99
2023-03-05T08:01:57.969Z,63.08
2023-03-05T08:05:00.771Z,63.29
2023-03-05T08:08:03.543Z,63.21
2023-03-05T08:11:08.581Z,62.92
2023-03-05T08:14:12.007Z,63.01
2023-03-05T08:17:14.747Z,63.07
2023-03-05T08:20:17.229Z,63.27
2023-03-05T08:23:19.871Z,63.25
2023-03-05T08:26:24.555Z,63.38
2023-03-05T08:29:27.367Z,63.53
2023-03-05T08:32:29.869Z,63.38
2023-03-05T08:35:34.762Z,62.64
2023-03-05T08:38:37.501Z,62.30
2023-03-05T08:41:40.228Z,61.84
2023-03-05T08:44:42.623Z,61.95
2023-03-05T08:47:45.265Z,61.73
2023-03-05T08:50:48.236Z,61.69
2023-03-05T08:53:50.910Z,61.67
2023-03-05T08:56:53.441Z,61.90
2023-03-05T08:59:56.117Z,61.42
2023-03-05T09:02:58.619Z,61.19
2023-03-05T09:06:03.479Z,61.27
2023-03-05T09:09:07.719Z,60.86
2023-03-05T09:12:12.316Z,60.66
2023-03-05T09:15:14.827Z,60.63
2023-03-05T09:18:17.548Z,59.97
2023-03-05T09:21:19.971Z,59.71
2023-03-05T09:24:22.658Z,59.61
2023-03-05T09:27:25.022Z,59.51
2023-03-05T09:30:27.816Z,59.46
2023-03-05T09:33:31.937Z,60.15
2023-03-05T09:36:34.766Z,60.41
2023-03-05T09:39:37.219Z,59.99
2023-03-05T09:42:42.733Z,59.56
2023-03-05T09:46:03.158Z,60.17
2023-03-05T09:49:17.948Z,60.25
2023-03-05T09:52:23.691Z,60.18
2023-03-05T09:55:40.463Z,59.69
2023-03-05T09:58:48.404Z,59.49
2023-03-05T10:01:53.128Z,59.40
2023-03-05T10:05:17.245Z,58.68
2023-03-05T10:08:25.183Z,58.83
2023-03-05T10:11:39.659Z,58.66
2023-03-05T10:14:42.240Z,58.63
2023-03-05T10:18:16.598Z,58.43
2023-03-05T10:21:27.293Z,57.96
2023-03-05T10:25:18.469Z,58.30
2023-03-05T10:28:29.666Z,57.95
2023-03-05T10:31:48.024Z,57.20
2023-03-05T10:35:12.287Z,57.88
2023-03-05T10:38:36.978Z,56.94
2023-03-05T10:42:10.442Z,57.47
2023-03-05T10:45:36.792Z,56.92
2023-03-05T10:48:50.965Z,57.52
2023-03-05T10:51:59.297Z,56.57
2023-03-05T10:55:02.019Z,56.30
2023-03-05T10:58:15.782Z,55.82
2023-03-05T11:01:18.148Z,55.78
2023-03-05T11:04:30.060Z,56.74
2023-03-05T11:07:35.795Z,56.37
2023-03-05T11:10:38.478Z,56.27
2023-03-05T11:13:54.882Z,56.12
2023-03-05T11:16:57.883Z,55.90
2023-03-05T11:20:28.856Z,56.73
2023-03-05T11:23:31.526Z,55.98
2023-03-05T11:26:34.185Z,55.59
2023-03-05T11:29:48.380Z,55.25
2023-03-05T11:32:51.012Z,55.14
2023-03-05T11:36:11.266Z,55.27
2023-03-05T11:39:19.423Z,55.15
2023-03-05T11:42:25.230Z,54.87
2023-03-05T11:45:29.367Z,54.93
2023-03-05T11:48:42.575Z,55.42
2023-03-05T11:51:57.553Z,55.55
2023-03-05T11:55:16.007Z,55.11
2023-03-05T11:58:30.204Z,54.61
2023-03-05T12:01:40.345Z,54.43
2023-03-05T12:04:43.060Z,54.25
2023-03-05T12:07:50.095Z,53.65
2023-03-05T12:10:53.034Z,53.75
2023-03-05T12:14:00.822Z,53.79
2023-03-05T12:17:28.437Z,53.38
2023-03-05T12:20:38.130Z,53.57
2023-03-05T12:23:55.552Z,53.35
2023-03-05T12:27:03.980Z,53.04
2023-03-05T12:30:32.543Z,52.05
2023-03-05T12:33:36.561Z,52.04
2023-03-05T12:36:39.764Z,51.97
2023-03-05T12:39:51.056Z,50.80
2023-03-05T12:43:26.750Z,49.60
2023-03-05T12:46:29.744Z,49.84
2023-03-05T12:49:39.755Z,49.64
2023-03-05T12:52:45.967Z,48.99
2023-03-05T12:56:02.371Z,48.69
2023-03-05T12:59:05.031Z,48.36
2023-03-05T13:02:21.953Z,47.67
2023-03-05T13:05:37.420Z,48.26
2023-03-05T13:08:40.088Z,48.71
2023-03-05T13:11:45.144Z,49.57
2023-03-05T13:14:57.053Z,49.72
2023-03-05T13:18:03.394Z,49.85
2023-03-05T13:21:07.889Z,49.13
2023-03-05T13:24:18.480Z,49.53
2023-03-05T13:27:32.421Z,49.64
2023-03-05T13:30:34.963Z,49.54
2023-03-05T13:33:38.102Z,49.55
2023-03-05T13:36:45.351Z,49.35
2023-03-05T13:39:56.369Z,49.57
2023-03-05T13:43:20.731Z,49.31
2023-03-05T13:46:42.172Z,49.66
2023-03-05T13:49:47.242Z,50.20
2023-03-05T13:52:50.233Z,50.55
2023-03-05T13:55:56.523Z,51.63
2023-03-05T13:58:59.408Z,52.26
2023-03-05T14:02:06.001Z,52.32
2023-03-05T14:05:15.316Z,52.55
2023-03-05T14:08:23.988Z,52.94
2023-03-05T14:11:26.749Z,53.05
2023-03-05T14:14:31.646Z,53.21
2023-03-05T14:17:39.096Z,53.28
2023-03-05T14:21:01.549Z,53.40
2023-03-05T14:24:14.485Z,53.74
2023-03-05T14:27:21.174Z,53.78
2023-03-05T14:30:25.656Z,53.70
2023-03-05T14:33:31.520Z,53.91
2023-03-05T14:36:34.898Z,53.80
2023-03-05T14:39:55.175Z,53.79
2023-03-05T14:43:00.411Z,54.06
2023-03-05T14:46:04.532Z,54.10
2023-03-05T14:49:07.223Z,54.19
2023-03-05T14:52:15.369Z,54.07
2023-03-05T14:55:20.645Z,54.19
2023-03-05T14:58:26.313Z,54.08
2023-03-05T15:01:29.097Z,54.18
2023-03-05T15:04:31.493Z,54.13
2023-03-05T15:07:34.265Z,53.86
2023-03-05T15:10:36.630Z,53.94
2023-03-05T15:13:39.418Z,54.06
2023-03-05T15:16:44.445Z,54.13
2023-03-05T15:19:47.541Z,54.01
2023-03-05T15:22:50.227Z,54.41
2023-03-05T15:25:52.936Z,54.28
2023-03-05T15:28:55.329Z,54.15
2023-03-05T15:31:58.326Z,54.26
2023-03-05T15:35:00.896Z,54.39
2023-03-05T15:38:03.978Z,54.82
2023-03-05T15:41:06.517Z,54.85
2023-03-05T15:44:09.201Z,55.12
2023-03-05T15:47:11.592Z,55.38
2023-03-05T15:50:14.232Z,54.85
2023-03-05T15:53:16.625Z,54.64
2023-03-05T15:56:19.838Z,54.53
2023-03-05T15:59:22.197Z,54.98
2023-03-05T16:02:25.197Z,54.87
2023-03-05T16:05:27.914Z,55.26
2023-03-05T16:08:30.292Z,55.30
2023-03-05T16:11:37.224Z,55.39
2023-03-05T16:14:40.558Z,55.25
2023-03-05T16:17:45.458Z,55.82
2023-03-05T16:20:47.890Z,55.74
2023-03-05T16:23:50.522Z,55.67
2023-03-05T16:26:53.110Z,55.47
2023-03-05T16:29:56.320Z,55.50
2023-03-05T16:32:59.590Z,55.05
2023-03-05T16:36:14.294Z,54.50
2023-03-05T16:39:16.660Z,54.60
2023-03-05T16:42:19.318Z,54.15
2023-03-05T16:45:21.777Z,53.94
2023-03-05T16:48:24.382Z,53.06
2023-03-05T16:51:27.505Z,52.98
2023-03-05T16:54:30.157Z,52.34
2023-03-05T16:57:32.668Z,51.42
2023-03-05T17:00:35.432Z,51.02
2023-03-05T17:03:41.296Z,51.14
2023-03-05T17:06:46.923Z,50.68
2023-03-05T17:09:50.471Z,50.67
2023-03-05T17:12:53.303Z,50.61
2023-03-05T17:15:57.089Z,50.34
2023-03-05T17:19:00.346Z,50.51
2023-03-05T17:22:04.316Z,50.36
2023-03-05T17:25:07.685Z,50.78
2023-03-05T17:28:10.655Z,50.71
2023-03-05T17:31:14.383Z,50.96
2023-03-05T17:34:18.422Z,50.93
2023-03-05T17:37:26.826Z,51.01
2023-03-05T17:40:29.402Z,51.32
2023-03-05T17:43:32.138Z,51.32
2023-03-05T17:46:34.567Z,51.46
2023-03-05T17:49:37.226Z,51.52
2023-03-05T17:52:41.112Z,51.50
2023-03-05T17:55:43.745Z,51.68
2023-03-05T17:58:46.152Z,51.74
2023-03-05T18:01:48.964Z,52.28
2023-03-05T18:04:52.162Z,52.26
2023-03-05T18:07:55.610Z,52.63
2023-03-05T18:10:58.286Z,52.93
2023-03-05T18:14:00.868Z,53.58
2023-03-05T18:17:03.604Z,52.70
2023-03-05T18:20:07.386Z,53.37
2023-03-05T18:23:10.947Z,52.54
2023-03-05T18:26:13.655Z,52.52
2023-03-05T18:29:18.641Z,52.62
2023-03-05T18:32:24.428Z,52.82
2023-03-05T18:35:29.261Z,52.36
2023-03-05T18:38:32.119Z,52.52
2023-03-05T18:41:34.747Z,52.57
2023-03-05T18:44:37.183Z,52.25
2023-03-05T18:47:42.055Z,53.19
2023-03-05T18:50:44.696Z,52.63
2023-03-05T18:53:47.924Z,52.51
2023-03-05T18:56:50.285Z,52.78
2023-03-05T18:59:55.233Z,52.54
2023-03-05T19:02:58.115Z,52.71
2023-03-05T19:06:00.902Z,52.71
2023-03-05T19:09:59.757Z,52.98
2023-03-05T19:13:43.664Z,52.88
2023-03-05T19:16:46.129Z,53.35
2023-03-05T19:19:53.546Z,53.06
2023-03-05T19:22:57.998Z,53.01
2023-03-05T19:26:02.134Z,52.84
2023-03-05T19:29:05.427Z,53.06
2023-03-05T19:32:10.544Z,53.16
2023-03-05T19:35:17.436Z,52.74
2023-03-05T19:38:20.280Z,53.10
2023-03-05T19:41:22.954Z,53.30
2023-03-05T19:44:26.248Z,53.20
2023-03-05T19:47:28.735Z,53.26
2023-03-05T19:50:33.467Z,53.45
2023-03-05T19:53:36.763Z,53.02
2023-03-05T19:56:40.642Z,52.78
2023-03-05T19:59:44.167Z,52.87
2023-03-05T20:02:48.644Z,52.93
2023-03-05T20:05:51.267Z,52.98
2023-03-05T20:08:54.396Z,52.97
2023-03-05T20:11:59.387Z,53.03
2023-03-05T20:15:02.021Z,52.69
2023-03-05T20:18:04.732Z,53.14
2023-03-05T20:21:08.226Z,52.95
2023-03-05T20:24:13.489Z,53.45
2023-03-05T20:27:15.823Z,53.27
2023-03-05T20:30:19.206Z,53.17
2023-03-05T20:33:22.106Z,52.89
2023-03-05T20:36:24.825Z,52.92
2023-03-05T20:39:27.246Z,52.87
2023-03-05T20:42:29.858Z,52.96
2023-03-05T20:45:34.162Z,53.19
2023-03-05T20:48:39.588Z,53.27
2023-03-05T20:51:42.005Z,53.34
2023-03-05T20:54:47.684Z,53.60
2023-03-05T20:57:50.148Z,53.82
2023-03-05T21:00:53.446Z,53.65
2023-03-05T21:03:59.779Z,53.35
2023-03-05T21:07:05.336Z,53.59
2023-03-05T21:10:07.832Z,53.62
2023-03-05T21:13:10.590Z,53.87
2023-03-05T21:16:22.644Z,53.81
2023-03-05T21:19:25.398Z,53.80
2023-03-05T21:22:27.838Z,53.99
2023-03-05T21:25:35.041Z,54.25
2023-03-05T21:28:39.882Z,54.57
2023-03-05T21:31:42.685Z,54.82
2023-03-05T21:34:46.463Z,54.67
2023-03-05T21:37:49.272Z,55.00
2023-03-05T21:40:53.917Z,55.21
2023-03-05T21:43:57.485Z,55.62
2023-03-05T21:46:59.889Z,56.13
2023-03-05T21:50:03.144Z,55.93
2023-03-05T21:53:05.636Z,55.95
2023-03-05T21:56:34.619Z,56.27
2023-03-05T21:59:41.324Z,56.24
2023-03-05T22:02:44.085Z,56.54
2023-03-05T22:05:46.747Z,56.83
2023-03-05T22:08:49.210Z,56.86
2023-03-05T22:11:51.912Z,56.95
2023-03-05T22:14:54.226Z,57.00
2023-03-05T22:17:57.002Z,56.99
2023-03-05T22:21:00.378Z,57.13
2023-03-05T22:24:03.066Z,57.24
2023-03-05T22:27:05.459Z,57.07
2023-03-05T22:30:09.878Z,56.69
2023-03-05T22:33:12.679Z,57.03
2023-03-05T22:36:15.816Z,57.23
2023-03-05T22:39:18.298Z,57.05
2023-03-05T22:42:21.104Z,57.14
2023-03-05T22:45:23.514Z,56.85
2023-03-05T22:48:26.274Z,57.08
2023-03-05T22:51:28.614Z,57.22
2023-03-05T22:54:31.294Z,57.43
2023-03-05T22:57:33.971Z,57.14
2023-03-05T23:00:36.668Z,57.43
2023-03-05T23:03:39.816Z,57.41
2023-03-05T23:06:42.478Z,56.85
2023-03-05T23:09:45.576Z,56.48
2023-03-05T23:12:52.101Z,55.71
2023-03-05T23:15:54.573Z,55.56
2023-03-05T23:18:57.504Z,55.51
2023-03-05T23:21:59.789Z,55.56
2023-03-05T23:25:02.624Z,55.71
2023-03-05T23:28:05.306Z,55.56
2023-03-05T23:31:08.057Z,55.82
2023-03-05T23:34:10.464Z,55.68
2023-03-05T23:37:13.062Z,55.97
2023-03-05T23:40:20.263Z,56.00
2023-03-05T23:43:24.920Z,55.65
2023-03-05T23:46:27.550Z,55.18
2023-03-05T23:49:30.404Z,55.38
2023-03-05T23:52:33.537Z,55.48
2023-03-05T23:55:40.706Z,55.22
2023-03-05T23:58:43.077Z,55.31
